Time;durP1;ratioP1;P1;durP2;ratioP2;P2;SDS_P1;SDS_P2;PMS_P1;PMS_P2;Temp;Humidity;BMP_temperature;BMP_pressure;BME280_temperature;BME280_humidity;BME280_pressure;Samples;Min_cycle;Max_cycle;Signal;HPM_P1;HPM_P2
2023/10/03 05:25:51;;;;;;;;;5.00;5.00;;;;;22.66;56.46;101278.53;5059760;27;45422;-74
2023/10/03 05:28:16;;;;;;;;;7.33;7.33;;;;;22.81;56.63;101287.00;5044400;27;45740;-74
2023/10/03 05:30:41;;;;;;;;;6.00;6.00;;;;;22.99;56.32;101279.78;5044024;28;45377;-75
2023/10/03 05:33:07;;;;;;;;;6.00;6.00;;;;;23.21;56.58;101288.47;5059646;27;45739;-75
2023/10/03 05:35:33;;;;;;;;;9.00;8.00;;;;;23.46;55.71;101294.16;5059210;27;46277;-75
2023/10/03 05:37:59;;;;;;;;;8.00;8.00;;;;;23.69;55.56;101299.97;5039419;28;45461;-75
2023/10/03 05:40:26;;;;;;;;;9.33;8.00;;;;;23.91;55.23;101308.59;5043166;28;45639;-74
2023/10/03 05:42:52;;;;;;;;;10.00;8.00;;;;;24.14;54.69;101299.13;5037908;28;45549;-75
2023/10/03 05:45:19;;;;;;;;;7.00;7.00;;;;;24.27;54.47;101291.41;5044036;28;45448;-76
2023/10/03 05:47:46;;;;;;;;;8.50;8.00;;;;;24.52;54.06;101304.28;5077930;27;45527;-76
2023/10/03 05:50:14;;;;;;;;;7.33;7.33;;;;;24.70;53.95;101299.63;5052408;27;45500;-76
2023/10/03 05:52:40;;;;;;;;;8.67;7.00;;;;;24.86;53.36;101295.28;5043744;27;45707;-77
2023/10/03 05:55:06;;;;;;;;;8.67;7.00;;;;;25.02;53.43;101301.78;5041740;28;46088;-76
2023/10/03 05:57:33;;;;;;;;;10.00;9.00;;;;;25.15;53.08;101304.03;5043013;28;45448;-80
2023/10/03 05:59:59;;;;;;;;;9.00;7.00;;;;;25.25;53.06;101305.59;5039286;27;45480;-79
2023/10/03 06:02:24;;;;;;;;;8.67;8.67;;;;;25.37;52.48;101303.41;5066366;27;45571;-79
2023/10/03 06:04:50;;;;;;;;;8.00;7.00;;;;;25.47;52.50;101308.66;5046044;28;45518;-76
2023/10/03 06:38:23;;;;;;;;;9.00;9.00;;;;;24.30;53.83;101317.38;5091159;27;45501;-75
2023/10/03 06:40:49;;;;;;;;;10.00;10.00;;;;;24.37;53.79;101321.16;5084181;27;46111;-73
2023/10/03 06:43:14;;;;;;;;;7.67;7.33;;;;;24.46;54.25;101330.19;5077823;27;45597;-73
2023/10/03 06:45:40;;;;;;;;;10.00;9.33;;;;;24.59;53.72;101329.75;5088902;27;45439;-73
2023/10/03 06:48:06;;;;;;;;;10.00;7.00;;;;;24.71;53.16;101339.31;5082115;27;46148;-72
2023/10/03 06:50:31;;;;;;;;;12.67;10.00;;;;;24.83;53.51;101337.19;5080568;27;45456;-72
2023/10/03 06:52:57;;;;;;;;;7.67;5.67;;;;;24.95;52.81;101326.91;5076888;27;45432;-72
2023/10/03 06:55:22;;;;;;;;;9.33;8.67;;;;;25.07;53.04;101335.59;5083332;27;45660;-75
2023/10/03 06:57:47;;;;;;;;;11.33;8.67;;;;;25.22;52.73;101338.50;5087957;27;56833;-75
2023/10/03 07:00:14;;;;;;;;;10.67;8.00;;;;;25.32;52.83;101332.94;5088457;27;61094;-75
2023/10/03 07:02:40;;;;;;;;;9.67;7.33;;;;;25.45;51.96;101335.16;5087779;27;45485;-75
2023/10/03 07:05:10;;;;;;;;;5.67;5.67;;;;;25.56;52.01;101352.19;5087164;27;45730;-75
2023/10/03 07:07:36;;;;;;;;;8.00;8.00;;;;;25.67;51.11;101360.03;5088590;27;46762;-76
2023/10/03 07:10:01;;;;;;;;;7.67;7.67;;;;;25.77;52.10;101384.34;5079159;27;45521;-76
2023/10/03 07:12:26;;;;;;;;;9.33;8.00;;;;;25.84;51.98;101388.09;5082897;27;45993;-72
2023/10/03 07:14:52;;;;;;;;;11.33;8.33;;;;;25.91;51.85;101375.50;5078854;27;46436;-72
2023/10/03 07:17:17;;;;;;;;;6.33;6.33;;;;;26.01;51.04;101386.22;5082242;27;45732;-74
2023/10/03 07:19:48;;;;;;;;;9.00;8.00;;;;;26.09;51.34;101390.81;5077059;27;45443;-73
2023/10/03 07:22:13;;;;;;;;;7.00;6.00;;;;;26.14;51.52;101393.88;5083023;27;45547;-72
2023/10/03 07:24:39;;;;;;;;;8.67;7.00;;;;;26.18;51.39;101387.06;5077303;27;45569;-72
2023/10/03 07:27:07;;;;;;;;;7.00;6.67;;;;;26.25;50.62;101403.59;5075487;27;46430;-72
2023/10/03 07:29:32;;;;;;;;;8.67;6.67;;;;;26.32;51.30;101417.34;5073600;27;45535;-73
2023/10/03 07:31:58;;;;;;;;;7.00;7.00;;;;;26.37;50.44;101405.97;5079542;27;45334;-73
2023/10/03 07:34:23;;;;;;;;;7.67;6.00;;;;;26.40;50.50;101405.63;5080856;27;45395;-75
2023/10/03 07:36:48;;;;;;;;;9.67;8.33;;;;;26.44;50.04;101424.13;5074380;27;45427;-76
2023/10/03 07:39:15;;;;;;;;;7.00;7.00;;;;;26.44;50.58;101426.88;5080012;27;45556;-76
2023/10/03 07:41:40;;;;;;;;;7.33;7.00;;;;;26.50;50.50;101405.41;5076646;27;45542;-75
2023/10/03 07:44:08;;;;;;;;;8.00;8.00;;;;;26.52;49.74;101406.94;5079488;27;45506;-74
2023/10/03 07:46:34;;;;;;;;;5.33;5.33;;;;;26.53;49.95;101405.91;5086979;27;46082;-74
2023/10/03 07:49:01;;;;;;;;;8.33;8.33;;;;;26.57;50.45;101407.28;5076654;27;45516;-74
2023/10/03 07:51:27;;;;;;;;;8.67;8.67;;;;;26.60;49.61;101405.25;5065515;27;45399;-73
2023/10/03 07:53:55;;;;;;;;;8.00;8.00;;;;;26.62;49.86;101411.34;5068116;27;45828;-73
2023/10/03 07:56:53;;;;;;;;;7.00;7.00;;;;;26.61;50.13;101405.09;5057902;27;45806;-74
2023/10/03 07:59:11;;;;;;;;;8.33;7.33;;;;;26.67;49.25;101420.72;5064192;27;45542;-73
2023/10/03 08:01:38;;;;;;;;;9.33;7.00;;;;;26.70;49.78;101435.84;5073378;28;45380;-73
2023/10/03 08:04:14;;;;;;;;;7.33;7.00;;;;;26.72;49.13;101444.69;5071167;28;45504;-72
2023/10/03 08:06:39;;;;;;;;;6.67;6.67;;;;;26.73;50.07;101445.53;5072785;27;45453;-75
2023/10/03 08:09:08;;;;;;;;;5.00;4.33;;;;;26.74;49.41;101448.09;5071469;27;45572;-74
2023/10/03 08:11:35;;;;;;;;;7.00;7.00;;;;;26.74;49.50;101441.78;5067518;28;45523;-74
2023/10/03 08:14:23;;;;;;;;;5.67;5.67;;;;;26.77;49.55;101436.84;5066703;28;45471;-76
2023/10/03 08:16:49;;;;;;;;;7.00;5.00;;;;;26.78;49.17;101444.00;5071738;28;45924;-73
2023/10/03 08:19:22;;;;;;;;;6.00;6.00;;;;;26.79;49.21;101440.25;5069974;27;45581;-73
2023/10/03 08:21:48;;;;;;;;;6.33;6.33;;;;;26.81;49.40;101438.19;5070002;27;45297;-72
2023/10/03 08:24:15;;;;;;;;;7.33;6.67;;;;;26.83;49.53;101454.38;5070673;27;46471;-72
2023/10/03 08:26:46;;;;;;;;;6.67;6.67;;;;;26.82;49.59;101467.13;5068458;27;45473;-73
2023/10/03 08:29:21;;;;;;;;;7.00;7.00;;;;;26.86;48.84;101475.81;5071551;28;45509;-71
2023/10/03 08:31:49;;;;;;;;;5.00;5.00;;;;;26.87;48.93;101480.22;5064823;27;45459;-72
2023/10/03 08:34:19;;;;;;;;;6.00;6.00;;;;;26.88;48.78;101478.34;5073994;27;45367;-72
2023/10/03 08:36:45;;;;;;;;;5.00;5.00;;;;;26.89;49.47;101485.50;5061943;27;46017;-73
2023/10/03 08:39:13;;;;;;;;;7.00;5.00;;;;;26.89;49.54;101502.69;5063756;27;45501;-72
2023/10/03 08:42:12;;;;;;;;;5.67;5.00;;;;;26.91;49.33;101507.97;5073883;27;45332;-73
2023/10/03 08:44:49;;;;;;;;;5.00;5.00;;;;;26.86;48.67;101500.31;5062655;28;45490;-73
2023/10/03 08:47:18;;;;;;;;;9.33;5.33;;;;;26.89;49.05;101518.19;5073253;27;46608;-72
2023/10/03 08:49:56;;;;;;;;;8.00;5.67;;;;;26.90;49.37;101526.19;5059896;28;45544;-75
2023/10/03 08:52:38;;;;;;;;;8.00;8.00;;;;;26.88;48.93;101550.00;5073258;27;45453;-75
2023/10/03 08:55:08;;;;;;;;;5.33;5.33;;;;;26.88;48.85;101577.25;5065418;27;45475;-74
2023/10/03 08:57:35;;;;;;;;;8.67;5.67;;;;;26.91;48.76;101590.53;5061122;27;45495;-75
2023/10/03 09:00:03;;;;;;;;;5.33;5.33;;;;;26.92;49.11;101580.47;5065871;27;45564;-74
2023/10/03 09:02:31;;;;;;;;;8.00;6.67;;;;;26.91;48.87;101601.44;5069018;27;45453;-76
2023/10/03 09:04:57;;;;;;;;;5.67;4.33;;;;;26.90;48.42;101602.47;5071472;28;47114;-73
2023/10/03 09:07:23;;;;;;;;;5.00;4.67;;;;;26.87;48.66;101602.78;5073477;28;45434;-74
2023/10/03 09:09:50;;;;;;;;;4.00;4.00;;;;;26.90;48.66;101615.22;5059816;27;45611;-74
2023/10/03 09:12:20;;;;;;;;;4.33;3.33;;;;;26.89;48.32;101617.06;5065697;28;45507;-74
2023/10/03 09:14:53;;;;;;;;;4.33;4.00;;;;;26.88;48.48;101623.56;5066917;27;45437;-73
2023/10/03 09:17:21;;;;;;;;;5.00;5.00;;;;;26.87;48.40;101627.31;5067088;27;45438;-73
2023/10/03 09:19:47;;;;;;;;;5.00;4.67;;;;;26.88;47.87;101631.72;5071389;27;45729;-73
2023/10/03 09:22:30;;;;;;;;;5.00;4.33;;;;;26.88;47.91;101648.06;5067389;28;45476;-73
2023/10/03 09:24:55;;;;;;;;;2.67;2.67;;;;;26.84;47.75;101624.91;5067098;28;45506;-74
2023/10/03 09:27:27;;;;;;;;;3.33;3.00;;;;;26.90;47.92;101651.50;5062414;27;45560;-75
2023/10/03 09:29:52;;;;;;;;;4.67;3.67;;;;;26.91;47.96;101658.63;5072146;27;45370;-75
2023/10/03 09:32:23;;;;;;;;;5.00;3.33;;;;;26.93;47.66;101661.19;5072439;27;50627;-74
2023/10/03 09:35:00;;;;;;;;;4.33;4.33;;;;;26.92;47.98;101668.50;5072963;28;45498;-75
2023/10/03 09:37:28;;;;;;;;;3.00;3.00;;;;;26.93;47.11;101662.06;5068729;27;46017;-75
2023/10/03 09:40:00;;;;;;;;;5.67;5.67;;;;;26.94;48.38;101662.91;5062756;28;45609;-74
2023/10/03 09:42:26;;;;;;;;;2.67;2.67;;;;;26.94;47.76;101679.25;5069061;28;45694;-73
2023/10/03 09:44:57;;;;;;;;;4.00;2.33;;;;;26.96;47.54;101680.81;5071675;27;46020;-72
2023/10/03 09:47:29;;;;;;;;;6.67;5.00;;;;;26.94;47.56;101690.16;5072144;27;45491;-73
2023/10/03 09:50:03;;;;;;;;;4.00;4.00;;;;;26.95;47.82;101700.03;5071352;27;45517;-73
2023/10/03 09:52:30;;;;;;;;;2.67;2.67;;;;;26.90;47.92;101691.47;5068917;28;45631;-73
2023/10/03 09:54:59;;;;;;;;;1.00;1.00;;;;;26.93;47.73;101700.19;5065932;27;45796;-72
2023/10/03 09:57:28;;;;;;;;;5.33;2.67;;;;;26.93;47.28;101699.31;5071539;27;46205;-72
2023/10/03 09:59:55;;;;;;;;;4.67;3.00;;;;;26.95;47.44;101714.50;5054489;28;45660;-72
2023/10/03 10:02:31;;;;;;;;;5.67;4.00;;;;;26.95;47.25;101719.09;5066522;28;45434;-73
2023/10/03 10:05:05;;;;;;;;;4.67;3.67;;;;;26.96;47.57;101728.97;5071980;28;45695;-72
2023/10/03 10:07:43;;;;;;;;;4.67;4.00;;;;;26.96;47.43;101720.78;5069546;27;47055;-72
2023/10/03 10:10:14;;;;;;;;;4.00;4.00;;;;;26.96;47.37;101729.84;5056276;28;45521;-72
2023/10/03 10:13:20;;;;;;;;;4.00;4.00;;;;;26.95;47.46;101733.59;5070941;27;45585;-72
2023/10/03 10:16:01;;;;;;;;;3.00;3.00;;;;;26.96;46.88;101759.78;5068325;27;45810;-76
2023/10/03 10:18:44;;;;;;;;;4.00;3.00;;;;;26.99;46.66;101763.19;5065265;27;46339;-75
2023/10/03 10:21:22;;;;;;;;;3.00;3.00;;;;;27.01;46.83;101767.44;5058361;27;45729;-75
2023/10/03 10:24:10;;;;;;;;;4.00;4.00;;;;;27.02;47.09;101771.03;5069801;28;45455;-75
2023/10/03 10:26:37;;;;;;;;;2.00;2.00;;;;;27.03;46.99;101772.75;5069794;28;45470;-75
2023/10/03 10:29:11;;;;;;;;;4.00;4.00;;;;;27.03;46.38;101781.78;5064657;27;46215;-76
2023/10/03 10:31:44;;;;;;;;;5.00;3.33;;;;;27.03;47.00;101780.91;5062064;27;45460;-75
2023/10/03 10:34:22;;;;;;;;;3.00;3.00;;;;;27.07;46.32;101787.72;5066903;27;45517;-74
2023/10/03 10:36:56;;;;;;;;;3.33;2.67;;;;;27.06;46.69;101795.03;5070675;28;45441;-74
2023/10/03 10:39:23;;;;;;;;;3.00;3.00;;;;;27.06;46.60;101792.31;5068558;28;46383;-77
2023/10/03 10:42:09;;;;;;;;;4.00;4.00;;;;;27.05;46.04;101806.97;5070841;28;45497;-76
2023/10/03 10:44:34;;;;;;;;;3.00;3.00;;;;;27.07;46.06;101796.78;5071611;27;45567;-77
2023/10/03 10:47:06;;;;;;;;;3.67;3.00;;;;;27.09;46.13;101807.47;5066580;27;45382;-77
2023/10/03 10:49:31;;;;;;;;;3.33;3.33;;;;;27.10;46.05;101812.75;5070905;28;46298;-76
2023/10/03 10:52:06;;;;;;;;;5.00;3.00;;;;;27.11;46.10;101810.91;5070934;28;45597;-75
2023/10/03 10:54:33;;;;;;;;;2.67;2.67;;;;;27.14;46.44;101826.91;5057955;28;45562;-79
2023/10/03 10:57:21;;;;;;;;;4.67;3.00;;;;;27.15;45.72;101812.28;5064905;28;45580;-78
2023/10/03 10:59:47;;;;;;;;;4.00;4.00;;;;;27.15;46.54;101836.81;5063532;27;45540;-74
2023/10/03 11:02:28;;;;;;;;;3.67;3.00;;;;;27.13;46.52;101833.38;5068016;28;45345;-75
2023/10/03 11:04:58;;;;;;;;;3.67;3.67;;;;;27.16;45.87;101843.97;5072713;27;45410;-75
2023/10/03 11:07:27;;;;;;;;;3.00;3.00;;;;;27.17;45.91;101845.66;5072206;27;45443;-75
2023/10/03 11:09:55;;;;;;;;;5.67;4.67;;;;;27.18;45.47;101846.53;5069964;28;45843;-75
2023/10/03 11:12:24;;;;;;;;;4.33;3.00;;;;;27.19;46.05;101857.25;5068367;28;45483;-75
2023/10/03 11:14:50;;;;;;;;;7.00;4.00;;;;;27.21;45.81;101857.06;5071089;27;45582;-75
2023/10/03 11:17:16;;;;;;;;;2.00;2.00;;;;;27.21;45.25;101860.66;5071113;27;45639;-75
2023/10/03 11:19:42;;;;;;;;;4.00;3.33;;;;;27.23;45.18;101868.66;5071498;27;46570;-76
2023/10/03 11:22:11;;;;;;;;;4.00;3.00;;;;;27.22;44.78;101867.81;5063741;28;45395;-75
2023/10/03 11:24:41;;;;;;;;;5.00;4.00;;;;;27.21;45.11;101868.84;5069097;27;45456;-75
2023/10/03 11:27:06;;;;;;;;;6.33;4.33;;;;;27.20;45.34;101877.16;5071978;27;45465;-76
2023/10/03 11:29:46;;;;;;;;;4.33;4.00;;;;;27.21;45.20;101881.59;5058195;27;46049;-76
2023/10/03 11:32:32;;;;;;;;;4.33;4.33;;;;;27.19;45.09;101884.50;5074063;27;45526;-76
2023/10/03 11:35:12;;;;;;;;;3.67;3.67;;;;;27.18;44.72;101882.78;5073358;27;45433;-75
2023/10/03 11:37:45;;;;;;;;;2.00;1.33;;;;;27.15;45.01;101894.03;5069232;27;45719;-75
2023/10/03 11:40:15;;;;;;;;;2.67;1.67;;;;;27.15;44.67;101904.06;5071735;27;46306;-75
2023/10/03 11:42:44;;;;;;;;;3.67;3.67;;;;;27.14;44.58;101905.94;5070841;27;45389;-75
2023/10/03 11:45:14;;;;;;;;;4.00;4.00;;;;;27.09;44.87;101906.44;5075257;28;45455;-80
2023/10/03 11:47:39;;;;;;;;;4.33;2.33;;;;;27.07;45.07;101903.03;5071035;27;45483;-77
2023/10/03 11:50:06;;;;;;;;;7.00;5.67;;;;;27.06;44.37;101905.91;5072270;27;45595;-75
2023/10/03 11:52:31;;;;;;;;;4.33;4.00;;;;;27.08;44.66;101914.75;5072220;27;45445;-74
2023/10/03 11:54:58;;;;;;;;;2.00;2.00;;;;;27.09;44.55;101911.03;5074782;27;45384;-74
2023/10/03 11:57:24;;;;;;;;;6.67;4.67;;;;;27.07;44.38;101903.03;5073951;27;45398;-75
2023/10/03 11:59:50;;;;;;;;;3.00;3.00;;;;;27.11;44.25;101909.00;5072765;27;46014;-75
2023/10/03 12:02:15;;;;;;;;;4.00;3.00;;;;;27.10;45.05;101902.69;5071783;27;45502;-74
2023/10/03 12:04:40;;;;;;;;;2.00;2.00;;;;;27.14;44.45;101910.53;5071404;27;45469;-75
2023/10/03 12:07:06;;;;;;;;;4.33;3.00;;;;;27.14;44.88;101913.25;5073063;27;45513;-73
2023/10/03 12:09:31;;;;;;;;;3.00;3.00;;;;;27.13;43.95;101917.00;5073177;28;46993;-74
2023/10/03 12:11:57;;;;;;;;;4.33;3.33;;;;;27.14;44.60;101924.16;5074158;27;45449;-76
2023/10/03 12:14:23;;;;;;;;;2.33;2.00;;;;;27.12;43.63;101932.50;5074743;28;45478;-76
2023/10/03 12:16:51;;;;;;;;;4.33;4.33;;;;;27.10;44.09;101942.72;5070515;27;45476;-78
2023/10/03 12:19:19;;;;;;;;;3.00;3.00;;;;;27.07;43.40;101943.91;5073473;27;45385;-77
2023/10/03 12:21:45;;;;;;;;;1.33;1.33;;;;;27.06;43.69;101944.06;5068961;27;45398;-74
2023/10/03 12:24:10;;;;;;;;;6.00;4.00;;;;;27.03;43.77;101942.53;5064431;28;45411;-75
2023/10/03 12:26:35;;;;;;;;;4.33;4.33;;;;;27.01;44.07;101949.97;5071598;27;45281;-74
2023/10/03 12:29:04;;;;;;;;;2.33;2.33;;;;;27.02;43.50;101954.41;5097180;27;60971;-74
2023/10/03 12:31:30;;;;;;;;;2.67;2.67;;;;;27.03;43.10;101961.59;5071086;28;45582;-73
2023/10/03 12:33:56;;;;;;;;;2.67;2.67;;;;;27.07;43.25;101959.38;5068572;27;45579;-75
2023/10/03 12:36:21;;;;;;;;;2.33;2.33;;;;;27.05;43.22;101947.81;5072236;27;45497;-74
2023/10/03 12:38:47;;;;;;;;;5.67;4.67;;;;;27.07;43.58;101956.66;5072939;28;45842;-77
2023/10/03 12:41:13;;;;;;;;;7.00;5.33;;;;;27.04;43.79;101956.97;5073295;27;45375;-77
2023/10/03 12:43:45;;;;;;;;;3.33;3.33;;;;;27.08;43.72;101966.53;5067675;28;45569;-77
2023/10/03 12:46:11;;;;;;;;;3.67;3.00;;;;;27.07;43.23;101967.56;5070930;27;45480;-77
2023/10/03 12:48:38;;;;;;;;;2.33;2.33;;;;;27.05;43.00;101970.44;5069260;27;46015;-77
2023/10/03 12:51:04;;;;;;;;;5.00;3.67;;;;;27.04;43.14;101970.59;5070010;28;45399;-73
2023/10/03 12:53:35;;;;;;;;;6.33;3.00;;;;;27.02;42.86;101976.22;5069845;27;45361;-74
2023/10/03 12:56:01;;;;;;;;;6.00;3.00;;;;;27.01;43.22;101979.94;5071436;27;45933;-73
2023/10/03 12:58:27;;;;;;;;;3.33;3.33;;;;;27.03;42.61;101975.22;5070546;27;45855;-73
2023/10/03 13:00:52;;;;;;;;;2.33;2.00;;;;;27.04;42.29;101986.94;5073361;28;45329;-74
2023/10/03 13:03:19;;;;;;;;;1.67;1.67;;;;;27.04;42.77;101996.00;5070251;28;45511;-75
2023/10/03 13:05:45;;;;;;;;;5.33;4.00;;;;;27.07;43.16;101995.69;5073430;27;45542;-74
2023/10/03 13:08:11;;;;;;;;;5.00;3.33;;;;;27.10;42.94;101999.94;5068973;27;46234;-74
2023/10/03 13:10:38;;;;;;;;;4.00;3.00;;;;;27.10;42.87;101989.88;5066770;27;45511;-74
2023/10/03 13:13:05;;;;;;;;;4.00;3.00;;;;;27.11;42.88;101998.91;5072962;27;45483;-74
2023/10/03 13:15:31;;;;;;;;;2.00;2.00;;;;;27.10;42.97;102011.69;5069406;28;45468;-75
2023/10/03 13:17:57;;;;;;;;;7.00;3.33;;;;;27.09;42.85;102014.56;5064860;28;45669;-76
2023/10/03 13:20:24;;;;;;;;;2.33;2.33;;;;;27.10;42.73;102008.94;5067401;27;45475;-76
2023/10/03 13:22:50;;;;;;;;;2.33;2.33;;;;;27.11;42.61;102023.44;5069527;27;45480;-76
2023/10/03 13:25:18;;;;;;;;;3.33;2.33;;;;;27.13;42.32;102026.00;5071385;27;45543;-77
2023/10/03 13:27:45;;;;;;;;;6.67;4.67;;;;;27.12;42.11;102016.97;5061236;27;47051;-73
2023/10/03 13:30:12;;;;;;;;;3.00;3.00;;;;;27.10;41.90;102016.28;5053056;28;45817;-74
2023/10/03 13:32:40;;;;;;;;;4.00;4.00;;;;;27.09;41.51;102025.47;5062684;28;45477;-74
2023/10/03 13:35:07;;;;;;;;;1.67;1.67;;;;;27.08;41.96;102027.34;5070821;28;45412;-74
2023/10/03 13:37:32;;;;;;;;;3.33;2.67;;;;;27.10;41.84;102041.66;5085237;27;47058;-73
2023/10/03 13:39:57;;;;;;;;;1.67;1.67;;;;;27.11;41.61;102047.97;5071210;28;50514;-73
2023/10/03 13:42:23;;;;;;;;;2.33;2.33;;;;;27.13;41.28;102042.38;5055701;28;45606;-73
2023/10/03 13:44:53;;;;;;;;;4.00;2.00;;;;;27.14;40.85;102044.91;5065464;28;45463;-75
2023/10/03 13:47:21;;;;;;;;;1.33;1.33;;;;;27.14;41.32;102049.50;5069125;28;45424;-75
2023/10/03 13:49:47;;;;;;;;;2.00;1.00;;;;;27.13;41.20;102040.47;5070096;28;45546;-72
2023/10/03 13:52:13;;;;;;;;;0.00;0.00;;;;;27.09;41.02;102056.31;5072569;27;45520;-71
2023/10/03 13:54:40;;;;;;;;;1.67;1.67;;;;;27.14;40.78;102055.81;5070711;28;45548;-73
2023/10/03 13:57:05;;;;;;;;;2.67;2.00;;;;;27.14;40.91;102058.53;5070837;28;45457;-73
2023/10/03 13:59:32;;;;;;;;;2.00;2.00;;;;;27.14;40.71;102072.16;5071651;28;45497;-73
2023/10/03 14:01:57;;;;;;;;;3.00;2.00;;;;;27.15;40.45;102065.72;5065305;27;45696;-73
2023/10/03 14:04:23;;;;;;;;;2.00;2.00;;;;;27.14;40.49;102068.59;5070397;28;45549;-72
2023/10/03 14:06:48;;;;;;;;;2.00;2.00;;;;;27.11;40.37;102064.31;5071364;27;46119;-73
2023/10/03 14:09:16;;;;;;;;;1.33;1.33;;;;;27.14;40.36;102074.03;5070681;28;45505;-75
2023/10/03 14:11:42;;;;;;;;;2.00;2.00;;;;;27.10;40.35;102076.25;5065165;27;45690;-74
2023/10/03 14:14:07;;;;;;;;;2.00;2.00;;;;;27.09;40.42;102082.69;5069309;28;45414;-75
2023/10/03 14:16:33;;;;;;;;;2.00;2.00;;;;;27.09;40.93;102089.00;5070708;27;46238;-73
2023/10/03 14:18:58;;;;;;;;;2.00;2.00;;;;;27.08;40.69;102086.44;5063785;28;45441;-73
2023/10/03 14:21:23;;;;;;;;;2.00;2.00;;;;;27.05;40.17;102087.59;5062651;28;45473;-72
2023/10/03 14:23:51;;;;;;;;;1.00;1.00;;;;;27.07;40.28;102101.06;5058676;28;49529;-73
2023/10/03 14:26:16;;;;;;;;;2.67;1.33;;;;;27.08;39.85;102120.00;5063871;27;45566;-73
2023/10/03 14:28:41;;;;;;;;;1.50;1.50;;;;;27.08;40.50;102108.22;5063430;27;45497;-73
2023/10/03 14:31:09;;;;;;;;;1.00;1.00;;;;;27.08;40.62;102109.09;5070306;28;45665;-72
2023/10/03 14:33:35;;;;;;;;;1.00;1.00;;;;;27.10;40.02;102122.56;5062946;28;45438;-72
2023/10/03 14:36:01;;;;;;;;;2.67;2.00;;;;;27.08;39.63;102113.69;5064397;27;46314;-72
2023/10/03 14:38:26;;;;;;;;;2.00;2.00;;;;;27.09;39.86;102129.00;5072160;28;45415;-71
2023/10/03 14:40:53;;;;;;;;;1.00;1.00;;;;;27.08;40.12;102130.88;5067661;28;45561;-75
2023/10/03 14:43:18;;;;;;;;;3.00;1.00;;;;;27.06;39.66;102130.19;5072178;27;45505;-76
2023/10/03 14:45:44;;;;;;;;;2.00;2.00;;;;;27.02;39.69;102136.13;5070044;27;46050;-76
2023/10/03 14:48:09;;;;;;;;;3.33;2.33;;;;;27.04;40.00;102151.28;5070146;27;45533;-76
2023/10/03 14:50:35;;;;;;;;;2.67;2.00;;;;;27.00;39.67;102147.16;5066601;28;45555;-76
2023/10/03 14:53:00;;;;;;;;;1.00;1.00;;;;;26.98;39.08;102142.91;5061535;28;45356;-72
2023/10/03 14:55:27;;;;;;;;;1.67;1.67;;;;;26.98;39.95;102149.22;5066282;27;46072;-74
2023/10/03 14:57:53;;;;;;;;;2.00;1.00;;;;;26.95;39.99;102146.78;5061455;28;45521;-74
2023/10/03 15:00:19;;;;;;;;;3.00;2.67;;;;;26.98;39.20;102159.25;5074294;27;45489;-74
2023/10/03 15:02:44;;;;;;;;;4.00;2.33;;;;;26.99;39.85;102164.53;5071325;27;45534;-77
2023/10/03 15:05:10;;;;;;;;;2.00;2.00;;;;;26.96;39.43;102164.84;5063745;27;46092;-76
2023/10/03 15:07:37;;;;;;;;;3.33;3.33;;;;;26.95;39.44;102176.75;5061787;27;45582;-75
2023/10/03 15:10:02;;;;;;;;;2.00;2.00;;;;;26.94;39.38;102188.69;5069475;27;45358;-74
2023/10/03 15:12:28;;;;;;;;;2.33;2.33;;;;;26.93;39.99;102179.63;5064165;27;45416;-72
2023/10/03 15:14:53;;;;;;;;;3.00;3.00;;;;;26.92;39.16;102183.34;5059101;28;47033;-72
2023/10/03 15:17:18;;;;;;;;;2.33;2.33;;;;;26.91;39.16;102197.13;5064692;27;45363;-72
2023/10/03 15:19:44;;;;;;;;;2.00;2.00;;;;;26.90;39.37;102192.69;5063703;27;45875;-72
2023/10/03 15:22:11;;;;;;;;;2.00;1.33;;;;;26.89;39.44;102208.16;5056960;28;46870;-73
2023/10/03 15:24:38;;;;;;;;;2.00;2.00;;;;;26.89;39.06;102190.97;5067285;27;46048;-73
2023/10/03 15:27:03;;;;;;;;;2.67;2.33;;;;;26.87;39.22;102201.16;5070773;28;45474;-73
2023/10/03 15:29:29;;;;;;;;;0.00;0.00;;;;;26.86;39.26;102196.72;5058595;27;45495;-75
2023/10/03 15:31:55;;;;;;;;;1.00;1.00;;;;;26.87;38.65;102202.03;5065027;28;45708;-74
2023/10/03 15:34:29;;;;;;;;;1.00;1.00;;;;;26.87;38.39;102206.59;5062037;27;45439;-74
2023/10/03 15:36:55;;;;;;;;;2.33;2.00;;;;;26.83;38.39;102198.78;5065151;28;45430;-73
2023/10/03 15:39:21;;;;;;;;;2.00;2.00;;;;;26.81;38.28;102205.38;5067827;27;45418;-75
2023/10/03 15:41:48;;;;;;;;;1.00;1.00;;;;;26.78;38.41;102203.84;5066023;27;46125;-74
2023/10/03 15:44:16;;;;;;;;;3.00;3.00;;;;;26.78;38.49;102216.59;5067620;27;47074;-75
2023/10/03 15:46:42;;;;;;;;;0.67;0.67;;;;;26.77;37.98;102212.16;5073588;27;45680;-75
2023/10/03 15:49:07;;;;;;;;;3.00;3.00;;;;;26.76;38.07;102214.00;5070534;27;45494;-73
2023/10/03 16:27:31;;;;;;;;;1.67;1.00;;;;;24.70;41.10;102276.00;5091487;27;45484;-74
2023/10/03 16:29:57;;;;;;;;;4.00;2.33;;;;;24.74;41.41;102285.59;5086348;27;45549;-72
2023/10/03 16:32:22;;;;;;;;;2.33;1.67;;;;;24.82;41.50;102285.75;5085881;27;45667;-72
2023/10/03 16:34:47;;;;;;;;;2.00;2.00;;;;;24.91;42.01;102294.06;5088372;27;45612;-72
2023/10/03 16:37:12;;;;;;;;;1.00;1.00;;;;;25.04;41.78;102300.09;5085359;27;59435;-72
2023/10/03 16:39:38;;;;;;;;;2.33;1.33;;;;;25.19;41.66;102302.41;5085241;27;45800;-73
2023/10/03 16:42:06;;;;;;;;;3.00;1.33;;;;;25.32;41.24;102297.53;5088738;27;45441;-75
2023/10/03 16:44:32;;;;;;;;;1.67;0.67;;;;;25.50;41.70;102310.44;5087889;27;45410;-74
2023/10/03 16:46:57;;;;;;;;;1.67;1.33;;;;;25.63;41.75;102308.28;5086287;27;45590;-72
2023/10/03 16:49:23;;;;;;;;;1.00;1.00;;;;;25.78;41.44;102311.41;5073941;27;45936;-72
2023/10/03 16:51:49;;;;;;;;;1.67;1.67;;;;;25.91;41.58;102307.50;5084744;27;45519;-73
2023/10/03 16:54:15;;;;;;;;;4.00;1.00;;;;;26.04;41.66;102308.03;5083586;27;45470;-75
2023/10/03 16:56:41;;;;;;;;;2.00;1.00;;;;;26.15;41.55;102315.19;5084015;27;46244;-74
